createdAt,value
2023-02-28T00:01:26.929Z,101487.25
2023-02-28T00:03:53.651Z,101489.81
2023-02-28T00:06:21.033Z,101487.09
2023-02-28T00:08:47.648Z,101499.47
2023-02-28T00:11:15.737Z,101498.56
2023-02-28T00:13:47.240Z,101495.91
2023-02-28T00:16:19.916Z,101507.31
2023-02-28T00:18:48.442Z,101503.56
2023-02-28T00:21:16.306Z,101506.16
2023-02-28T00:23:42.969Z,101513.22
2023-02-28T00:26:09.559Z,101515.03
2023-02-28T00:28:36.447Z,101513.22
2023-02-28T00:31:03.072Z,101510.50
2023-02-28T00:33:30.113Z,101514.88
2023-02-28T00:36:09.206Z,101517.44
2023-02-28T00:38:36.536Z,101520.00
2023-02-28T00:41:06.126Z,101521.72
2023-02-28T00:43:38.439Z,101516.38
2023-02-28T00:46:05.622Z,101521.66
2023-02-28T00:48:32.639Z,101520.75
2023-02-28T00:50:59.357Z,101520.75
2023-02-28T00:53:26.335Z,101519.00
2023-02-28T00:55:53.326Z,101529.59
2023-02-28T00:58:19.987Z,101521.66
2023-02-28T01:00:50.115Z,101525.16
2023-02-28T01:03:20.927Z,101522.47
2023-02-28T01:05:48.317Z,101520.69
2023-02-28T01:08:15.413Z,101525.03
2023-02-28T01:10:42.639Z,101517.94
2023-02-28T01:13:09.547Z,101517.97
2023-02-28T01:15:36.137Z,101522.47
2023-02-28T01:18:02.740Z,101524.19
2023-02-28T01:20:29.282Z,101516.22
2023-02-28T01:22:55.876Z,101526.81
2023-02-28T01:25:22.617Z,101513.59
2023-02-28T01:27:49.269Z,101520.75
2023-02-28T01:30:16.005Z,101526.06
2023-02-28T01:32:42.557Z,101519.81
2023-02-28T01:35:09.434Z,101529.44
2023-02-28T01:37:36.012Z,101530.28
2023-02-28T01:40:03.397Z,101525.84
2023-02-28T01:42:29.985Z,101527.59
2023-02-28T01:45:32.703Z,101516.06
2023-02-28T01:48:03.204Z,101516.03
2023-02-28T01:50:34.662Z,101520.47
2023-02-28T01:53:05.357Z,101511.63
2023-02-28T01:55:33.508Z,101517.75
2023-02-28T01:58:03.663Z,101507.13
2023-02-28T02:00:31.316Z,101519.50
2023-02-28T02:03:02.378Z,101515.06
2023-02-28T02:05:35.295Z,101518.59
2023-02-28T02:08:08.924Z,101506.22
2023-02-28T02:10:57.092Z,101510.56
2023-02-28T02:13:38.782Z,101510.47
2023-02-28T02:16:08.322Z,101506.78
2023-02-28T02:18:50.976Z,101512.06
2023-02-28T02:21:38.816Z,101507.69
2023-02-28T02:24:39.548Z,101512.16
2023-02-28T02:27:19.467Z,101513.78
2023-02-28T02:30:09.723Z,101509.50
2023-02-28T02:32:48.498Z,101513.13
2023-02-28T02:35:25.226Z,101515.81
2023-02-28T02:38:00.963Z,101511.31
2023-02-28T02:40:44.624Z,101513.97
2023-02-28T02:43:40.074Z,101515.78
2023-02-28T02:46:29.336Z,101517.59
2023-02-28T02:48:58.434Z,101514.94
2023-02-28T02:51:25.986Z,101506.03
2023-02-28T02:54:06.850Z,101513.00
2023-02-28T02:56:35.619Z,101506.72
2023-02-28T02:59:05.350Z,101504.03
2023-02-28T03:01:35.680Z,101514.66
2023-02-28T03:04:08.782Z,101518.13
2023-02-28T03:06:36.385Z,101518.13
2023-02-28T03:09:04.509Z,101516.38
2023-02-28T03:11:32.495Z,101518.13
2023-02-28T03:14:20.301Z,101522.59
2023-02-28T03:16:55.662Z,101529.59
2023-02-28T03:19:48.470Z,101526.94
2023-02-28T03:22:55.842Z,101528.81
2023-02-28T03:25:25.258Z,101524.50
2023-02-28T03:28:14.819Z,101519.16
2023-02-28T03:30:59.828Z,101522.63
2023-02-28T03:33:35.936Z,101524.50
2023-02-28T03:36:14.248Z,101520.97
2023-02-28T03:38:46.985Z,101521.88
2023-02-28T03:41:26.796Z,101523.66
2023-02-28T03:44:25.366Z,101517.53
2023-02-28T03:47:01.204Z,101530.78
2023-02-28T03:50:00.215Z,101529.03
2023-02-28T03:52:32.216Z,101524.56
2023-02-28T03:55:08.038Z,101539.66
2023-02-28T03:57:45.227Z,101528.16
2023-02-28T04:00:22.120Z,101522.81
2023-02-28T04:02:53.625Z,101538.72
2023-02-28T04:05:23.970Z,101528.97
2023-02-28T04:07:50.708Z,101520.94
2023-02-28T04:10:17.784Z,101512.09
2023-02-28T04:12:44.359Z,101513.97
2023-02-28T04:15:12.280Z,101515.78
2023-02-28T04:17:39.287Z,101513.06
2023-02-28T04:20:10.511Z,101516.59
2023-02-28T04:22:38.260Z,101511.25
2023-02-28T04:25:06.693Z,101517.47
2023-02-28T04:27:33.534Z,101510.41
2023-02-28T04:30:00.295Z,101512.16
2023-02-28T04:32:27.120Z,101510.41
2023-02-28T04:34:53.871Z,101513.00
2023-02-28T04:37:20.737Z,101516.44
2023-02-28T04:39:47.349Z,101513.88
2023-02-28T04:42:14.673Z,101515.59
2023-02-28T04:44:41.276Z,101511.31
2023-02-28T04:47:08.077Z,101511.41
2023-02-28T04:49:34.679Z,101513.19
2023-02-28T04:52:01.245Z,101513.19
2023-02-28T04:54:29.330Z,101513.25
2023-02-28T04:56:55.948Z,101507.94
2023-02-28T04:59:22.544Z,101512.28
2023-02-28T05:01:50.104Z,101512.28
2023-02-28T05:04:18.150Z,101513.19
2023-02-28T05:06:45.165Z,101512.28
2023-02-28T05:09:14.590Z,101513.25
2023-02-28T05:11:41.898Z,101505.25
2023-02-28T05:14:12.501Z,101508.75
2023-02-28T05:16:39.304Z,101515.78
2023-02-28T05:19:06.129Z,101515.72
2023-02-28T05:21:50.350Z,101517.53
2023-02-28T05:24:23.505Z,101514.84
2023-02-28T05:26:52.963Z,101515.66
2023-02-28T05:29:20.325Z,101518.28
2023-02-28T05:31:47.465Z,101520.91
2023-02-28T05:34:16.530Z,101527.97
2023-02-28T05:36:43.378Z,101530.66
2023-02-28T05:39:14.212Z,101527.16
2023-02-28T05:41:44.620Z,101526.28
2023-02-28T05:44:12.019Z,101526.22
2023-02-28T05:46:39.464Z,101535.91
2023-02-28T05:49:06.425Z,101533.31
2023-02-28T05:51:33.094Z,101540.41
2023-02-28T05:54:01.550Z,101538.66
2023-02-28T05:56:28.830Z,101541.22
2023-02-28T05:58:55.425Z,101543.81
2023-02-28T06:01:27.705Z,101548.25
2023-02-28T06:03:54.399Z,101537.59
2023-02-28T06:06:21.034Z,101544.56
2023-02-28T06:08:47.872Z,101542.69
2023-02-28T06:11:14.566Z,101550.59
2023-02-28T06:13:41.705Z,101539.88
2023-02-28T06:16:10.217Z,101553.09
2023-02-28T06:18:37.017Z,101548.56
2023-02-28T06:21:04.153Z,101549.28
2023-02-28T06:23:30.941Z,101551.72
2023-02-28T06:26:00.584Z,101554.25
2023-02-28T06:28:27.178Z,101552.34
2023-02-28T06:30:53.771Z,101556.66
2023-02-28T06:33:20.384Z,101554.84
2023-02-28T06:35:53.912Z,101560.97
2023-02-28T06:38:20.490Z,101562.66
2023-02-28T06:40:54.859Z,101569.50
2023-02-28T06:43:21.837Z,101569.34
2023-02-28T06:45:48.448Z,101570.16
2023-02-28T06:48:15.011Z,101568.28
2023-02-28T06:50:41.686Z,101570.94
2023-02-28T06:53:08.310Z,101561.03
2023-02-28T06:55:34.913Z,101562.69
2023-02-28T06:58:01.457Z,101562.50
2023-02-28T07:00:28.002Z,101558.84
2023-02-28T07:02:56.060Z,101566.66
2023-02-28T07:05:22.743Z,101557.81
2023-02-28T07:07:49.637Z,101573.56
2023-02-28T07:10:20.152Z,101579.53
2023-02-28T07:12:46.952Z,101580.16
2023-02-28T07:15:13.618Z,101582.59
2023-02-28T07:17:40.197Z,101588.47
2023-02-28T07:20:07.392Z,101574.94
2023-02-28T07:22:34.009Z,101585.34
2023-02-28T07:25:00.593Z,101586.91
2023-02-28T07:27:27.326Z,101589.41
2023-02-28T07:29:55.671Z,101576.94
2023-02-28T07:32:22.388Z,101590.88
2023-02-28T07:34:49.511Z,101588.94
2023-02-28T07:37:16.206Z,101588.72
2023-02-28T07:39:43.465Z,101592.06
2023-02-28T07:42:12.773Z,101600.69
2023-02-28T07:44:41.683Z,101592.47
2023-02-28T07:47:09.663Z,101589.44
2023-02-28T07:49:39.992Z,101589.78
2023-02-28T07:52:08.054Z,101592.91
2023-02-28T07:54:35.152Z,101593.47
2023-02-28T07:57:01.732Z,101592.31
2023-02-28T07:59:29.998Z,101593.13
2023-02-28T08:01:58.928Z,101593.91
2023-02-28T08:04:25.680Z,101588.44
2023-02-28T08:06:54.966Z,101588.19
2023-02-28T08:09:21.632Z,101589.63
2023-02-28T08:11:48.284Z,101584.06
2023-02-28T08:14:14.881Z,101580.94
2023-02-28T08:16:41.477Z,101585.72
2023-02-28T08:19:08.023Z,101585.94
2023-02-28T08:21:34.602Z,101589.56
2023-02-28T08:24:01.527Z,101583.34
2023-02-28T08:26:28.063Z,101583.19
2023-02-28T08:28:56.184Z,101585.91
2023-02-28T08:31:24.091Z,101577.06
2023-02-28T08:33:52.875Z,101584.00
2023-02-28T08:36:20.438Z,101585.03
2023-02-28T08:38:47.106Z,101577.84
2023-02-28T08:41:14.178Z,101577.16
2023-02-28T08:43:41.628Z,101572.69
2023-02-28T08:46:08.956Z,101582.78
2023-02-28T08:48:39.029Z,101568.59
2023-02-28T08:51:10.049Z,101575.09
2023-02-28T08:53:41.242Z,101572.72
2023-02-28T08:56:14.060Z,101566.22
2023-02-28T08:58:41.518Z,101564.25
2023-02-28T09:01:10.652Z,101566.78
2023-02-28T09:03:37.296Z,101569.59
2023-02-28T09:06:04.379Z,101571.16
2023-02-28T09:08:32.294Z,101578.00
2023-02-28T09:11:02.389Z,101574.59
2023-02-28T09:13:31.034Z,101576.28
2023-02-28T09:16:03.641Z,101570.09
2023-02-28T09:18:30.613Z,101570.47
2023-02-28T09:20:58.708Z,101566.41
2023-02-28T09:23:25.828Z,101563.56
2023-02-28T09:25:54.916Z,101572.19
2023-02-28T09:28:22.631Z,101573.59
2023-02-28T09:30:52.590Z,101578.28
2023-02-28T09:33:22.920Z,101576.28
2023-02-28T09:35:50.633Z,101576.44
2023-02-28T09:38:18.838Z,101571.75
2023-02-28T09:40:56.539Z,101578.88
2023-02-28T09:43:26.632Z,101575.84
2023-02-28T09:46:03.520Z,101572.72
2023-02-28T09:48:38.021Z,101571.41
2023-02-28T09:51:24.436Z,101567.84
2023-02-28T09:53:56.751Z,101575.75
2023-02-28T09:56:43.424Z,101571.38
2023-02-28T09:59:31.480Z,101570.06
2023-02-28T10:02:11.576Z,101560.97
2023-02-28T10:04:38.161Z,101562.44
2023-02-28T10:07:33.112Z,101559.84
2023-02-28T10:10:06.067Z,101556.81
2023-02-28T10:12:34.345Z,101557.75
2023-02-28T10:15:05.480Z,101560.25
2023-02-28T10:20:32.330Z,101547.56
2023-02-28T10:23:24.886Z,101558.09
2023-02-28T10:25:57.956Z,101552.63
2023-02-28T10:28:26.326Z,101551.16
2023-02-28T10:30:54.852Z,101549.28
2023-02-28T10:33:42.728Z,101549.06
2023-02-28T10:36:15.179Z,101540.44
2023-02-28T10:38:42.134Z,101537.78
2023-02-28T10:41:16.251Z,101531.88
2023-02-28T10:43:45.948Z,101531.38
2023-02-28T10:46:24.081Z,101527.63
2023-02-28T10:49:06.885Z,101529.63
2023-02-28T10:51:41.552Z,101519.47
2023-02-28T10:54:16.676Z,101526.53
2023-02-28T10:56:43.358Z,101525.03
2023-02-28T10:59:10.060Z,101534.88
2023-02-28T11:01:39.818Z,101527.69
2023-02-28T11:04:37.658Z,101519.94
2023-02-28T11:07:27.539Z,101527.38
2023-02-28T11:09:56.750Z,101520.47
2023-02-28T11:12:50.845Z,101520.66
2023-02-28T11:15:27.141Z,101524.66
2023-02-28T11:18:20.385Z,101514.78
2023-02-28T11:20:51.995Z,101512.25
2023-02-28T11:23:21.114Z,101512.66
2023-02-28T11:25:52.625Z,101504.50
2023-02-28T11:28:33.583Z,101502.59
2023-02-28T11:31:15.002Z,101508.38
2023-02-28T11:33:45.869Z,101506.34
2023-02-28T11:36:15.166Z,101512.97
2023-02-28T11:38:43.157Z,101512.97
2023-02-28T11:41:28.710Z,101516.91
2023-02-28T11:44:33.759Z,101513.09
2023-02-28T11:47:09.130Z,101497.34
2023-02-28T11:49:51.364Z,101501.78
2023-02-28T11:52:26.966Z,101498.25
2023-02-28T11:55:20.427Z,101501.91
2023-02-28T11:57:52.813Z,101496.13
2023-02-28T12:00:37.445Z,101489.88
2023-02-28T12:03:29.252Z,101488.34
2023-02-28T12:06:28.727Z,101473.72
2023-02-28T12:09:10.608Z,101475.78
2023-02-28T12:11:49.288Z,101477.31
2023-02-28T12:14:48.262Z,101469.72
2023-02-28T12:17:44.378Z,101461.22
2023-02-28T12:20:55.944Z,101475.56
2023-02-28T12:23:44.398Z,101462.69
2023-02-28T12:26:25.539Z,101456.13
2023-02-28T12:28:59.184Z,101448.16
2023-02-28T12:31:32.024Z,101448.75
2023-02-28T12:34:04.836Z,101447.59
2023-02-28T12:36:31.417Z,101435.66
2023-02-28T12:39:04.112Z,101442.72
2023-02-28T12:41:40.135Z,101443.09
2023-02-28T12:44:15.469Z,101436.31
2023-02-28T12:46:52.016Z,101434.31
2023-02-28T12:49:55.642Z,101431.06
2023-02-28T12:52:44.009Z,101440.16
2023-02-28T12:55:26.200Z,101432.06
2023-02-28T12:58:21.784Z,101421.78
2023-02-28T13:01:03.556Z,101426.50
2023-02-28T13:03:45.022Z,101428.78
2023-02-28T13:06:21.218Z,101417.50
2023-02-28T13:09:09.791Z,101423.34
2023-02-28T13:11:43.345Z,101421.94
2023-02-28T13:14:34.137Z,101416.09
2023-02-28T13:17:12.708Z,101420.91
2023-02-28T13:20:01.854Z,101418.28
2023-02-28T13:22:50.244Z,101406.22
2023-02-28T13:25:23.081Z,101404.78
2023-02-28T13:27:57.665Z,101408.63
2023-02-28T13:30:52.748Z,101411.63
2023-02-28T13:33:24.717Z,101412.75
2023-02-28T13:36:09.705Z,101403.09
2023-02-28T13:38:39.834Z,101407.72
2023-02-28T13:41:37.142Z,101399.09
2023-02-28T13:44:15.582Z,101399.63
2023-02-28T13:46:48.306Z,101392.97
2023-02-28T13:49:26.880Z,101404.09
2023-02-28T13:52:03.443Z,101405.75
2023-02-28T13:55:09.598Z,101398.31
2023-02-28T13:58:13.957Z,101398.91
2023-02-28T14:01:22.223Z,101391.75
2023-02-28T14:04:16.140Z,101396.94
2023-02-28T14:06:52.963Z,101391.81
2023-02-28T14:09:32.311Z,101389.06
2023-02-28T14:12:37.480Z,101392.03
2023-02-28T14:15:06.495Z,101392.94
2023-02-28T14:17:33.708Z,101394.13
2023-02-28T14:20:00.862Z,101401.59
2023-02-28T14:22:30.400Z,101401.50
2023-02-28T14:25:19.688Z,101396.34
2023-02-28T14:28:13.316Z,101389.38
2023-02-28T14:30:52.088Z,101386.13
2023-02-28T14:33:30.660Z,101377.72
2023-02-28T14:36:02.947Z,101386.34
2023-02-28T14:38:36.152Z,101386.44
2023-02-28T14:41:07.937Z,101384.81
2023-02-28T14:43:34.515Z,101386.25
2023-02-28T14:46:04.293Z,101380.88
2023-02-28T14:48:31.396Z,101381.84
2023-02-28T14:51:00.219Z,101374.06
2023-02-28T14:53:30.471Z,101381.88
2023-02-28T14:55:57.766Z,101373.03
2023-02-28T14:58:35.279Z,101386.63
2023-02-28T15:01:04.388Z,101384.69
2023-02-28T15:03:39.350Z,101386.16
2023-02-28T15:06:13.289Z,101383.09
2023-02-28T15:08:39.845Z,101400.97
2023-02-28T15:11:13.648Z,101396.75
2023-02-28T15:13:46.202Z,101401.28
2023-02-28T15:16:23.129Z,101397.59
2023-02-28T15:18:53.644Z,101402.81
2023-02-28T15:21:27.523Z,101393.22
2023-02-28T15:24:24.799Z,101396.09
2023-02-28T15:26:56.196Z,101391.41
2023-02-28T15:29:25.721Z,101396.94
2023-02-28T15:32:02.985Z,101388.63
2023-02-28T15:34:42.174Z,101388.84
2023-02-28T15:37:42.265Z,101386.72
2023-02-28T15:40:17.256Z,101382.78
2023-02-28T15:42:58.667Z,101375.78
2023-02-28T15:45:57.846Z,101389.28
2023-02-28T15:48:36.970Z,101386.09
2023-02-28T15:51:06.624Z,101379.09
2023-02-28T15:53:55.594Z,101378.72
2023-02-28T15:56:29.958Z,101374.38
2023-02-28T15:59:01.623Z,101381.91
2023-02-28T16:01:31.064Z,101382.78
2023-02-28T16:04:04.274Z,101387.41
2023-02-28T16:06:37.497Z,101385.97
2023-02-28T16:09:06.064Z,101397.13
2023-02-28T16:11:36.153Z,101400.06
2023-02-28T16:14:04.259Z,101400.44
2023-02-28T16:16:32.496Z,101407.94
2023-02-28T16:18:59.157Z,101404.66
2023-02-28T16:21:26.799Z,101412.81
2023-02-28T16:23:53.408Z,101408.84
2023-02-28T16:26:24.042Z,101405.34
2023-02-28T16:28:52.037Z,101413.91
2023-02-28T16:31:19.064Z,101407.34
2023-02-28T16:33:46.670Z,101411.22
2023-02-28T16:36:21.985Z,101402.50
2023-02-28T16:38:48.925Z,101411.47
2023-02-28T16:41:21.875Z,101406.47
2023-02-28T16:43:51.022Z,101414.75
2023-02-28T16:46:18.608Z,101418.38
2023-02-28T16:48:46.328Z,101421.28
2023-02-28T16:51:14.768Z,101426.88
2023-02-28T16:53:41.428Z,101425.31
2023-02-28T16:56:16.790Z,101434.34
2023-02-28T16:58:43.429Z,101427.50
2023-02-28T17:01:10.103Z,101439.22
2023-02-28T17:03:37.834Z,101431.34
2023-02-28T17:06:05.392Z,101430.50
2023-02-28T17:08:33.193Z,101436.09
2023-02-28T17:11:00.339Z,101435.16
2023-02-28T17:13:26.983Z,101439.63
2023-02-28T17:15:53.649Z,101440.56
2023-02-28T17:18:22.114Z,101442.28
2023-02-28T17:20:49.415Z,101446.00
2023-02-28T17:23:16.956Z,101449.00
2023-02-28T17:25:56.322Z,101441.91
2023-02-28T17:28:24.495Z,101442.16
2023-02-28T17:30:51.123Z,101435.00
2023-02-28T17:33:17.803Z,101440.59
2023-02-28T17:35:44.401Z,101441.63
2023-02-28T17:38:18.019Z,101443.66
2023-02-28T17:40:45.335Z,101444.59
2023-02-28T17:43:11.999Z,101438.31
2023-02-28T17:45:38.692Z,101447.34
2023-02-28T17:48:05.926Z,101438.56
2023-02-28T17:50:32.992Z,101443.09
2023-02-28T17:52:59.650Z,101448.59
2023-02-28T17:55:26.286Z,101445.16
2023-02-28T17:57:52.967Z,101446.19
2023-02-28T18:00:20.077Z,101453.56
2023-02-28T18:02:46.744Z,101457.31
2023-02-28T18:05:13.508Z,101462.72
2023-02-28T18:07:40.841Z,101462.72
2023-02-28T18:10:14.265Z,101461.94
2023-02-28T18:12:40.850Z,101455.13
2023-02-28T18:15:07.753Z,101451.81
2023-02-28T18:17:34.396Z,101466.97
2023-02-28T18:20:00.916Z,101464.34
2023-02-28T18:22:27.505Z,101458.94
2023-02-28T18:24:54.026Z,101467.72
2023-02-28T18:27:20.679Z,101462.41
2023-02-28T18:29:47.306Z,101463.41
2023-02-28T18:32:13.956Z,101472.28
2023-02-28T18:34:40.657Z,101469.78
2023-02-28T18:37:07.406Z,101476.94
2023-02-28T18:39:33.986Z,101465.38
2023-02-28T18:42:00.564Z,101471.59
2023-02-28T18:44:27.191Z,101467.19
2023-02-28T18:46:53.832Z,101470.00
2023-02-28T18:49:20.743Z,101468.22
2023-02-28T18:51:47.482Z,101464.59
2023-02-28T18:54:15.807Z,101466.38
2023-02-28T18:56:42.384Z,101462.06
2023-02-28T18:59:09.043Z,101462.94
2023-02-28T19:01:36.406Z,101462.16
2023-02-28T19:04:03.762Z,101464.00
2023-02-28T19:06:32.875Z,101466.63
2023-02-28T19:09:01.837Z,101463.19
2023-02-28T19:11:28.739Z,101463.53
2023-02-28T19:13:56.500Z,101458.72
2023-02-28T19:16:23.106Z,101461.47
2023-02-28T19:18:50.248Z,101460.66
2023-02-28T19:21:19.276Z,101461.53
2023-02-28T19:23:45.932Z,101464.97
2023-02-28T19:26:15.748Z,101475.75
2023-02-28T19:28:42.388Z,101459.88
2023-02-28T19:31:14.274Z,101459.94
2023-02-28T19:33:41.640Z,101461.84
2023-02-28T19:36:12.058Z,101465.38
2023-02-28T19:38:40.066Z,101454.59
2023-02-28T19:41:11.712Z,101465.28
2023-02-28T19:43:38.815Z,101458.38
2023-02-28T19:46:07.270Z,101468.13
2023-02-28T19:48:33.837Z,101469.06
2023-02-28T19:51:09.428Z,101465.69
2023-02-28T19:53:37.438Z,101472.88
2023-02-28T19:56:04.727Z,101464.78
2023-02-28T19:58:32.037Z,101470.41
2023-02-28T20:01:01.259Z,101475.75
2023-02-28T20:03:27.881Z,101472.88
2023-02-28T20:06:03.802Z,101471.00
2023-02-28T20:08:31.019Z,101474.41
2023-02-28T20:11:12.434Z,101472.50
2023-02-28T20:13:39.159Z,101470.91
2023-02-28T20:16:09.625Z,101478.25
2023-02-28T20:18:37.904Z,101474.88
2023-02-28T20:21:05.084Z,101474.03
2023-02-28T20:23:31.771Z,101474.97
2023-02-28T20:26:02.494Z,101475.88
2023-02-28T20:28:29.128Z,101475.81
2023-02-28T20:30:55.908Z,101472.16
2023-02-28T20:33:22.721Z,101468.59
2023-02-28T20:35:52.636Z,101465.94
2023-02-28T20:38:20.303Z,101463.19
2023-02-28T20:40:46.865Z,101458.75
2023-02-28T20:43:13.569Z,101454.19
2023-02-28T20:45:40.305Z,101456.84
2023-02-28T20:48:06.856Z,101459.53
2023-02-28T20:50:33.382Z,101457.09
2023-02-28T20:52:59.981Z,101462.72
2023-02-28T20:55:26.536Z,101460.97
2023-02-28T20:57:54.181Z,101460.88
2023-02-28T21:00:22.415Z,101468.03
2023-02-28T21:02:49.056Z,101463.72
2023-02-28T21:05:15.745Z,101463.78
2023-02-28T21:07:42.294Z,101458.44
2023-02-28T21:10:09.999Z,101466.38
2023-02-28T21:12:36.576Z,101462.00
2023-02-28T21:15:03.759Z,101461.06
2023-02-28T21:17:30.421Z,101460.03
2023-02-28T21:19:57.077Z,101457.44
2023-02-28T21:22:23.603Z,101460.16
2023-02-28T21:24:50.148Z,101462.06
2023-02-28T21:27:16.759Z,101459.63
2023-02-28T21:29:43.337Z,101450.59
2023-02-28T21:32:10.062Z,101455.94
2023-02-28T21:34:36.720Z,101441.72
2023-02-28T21:37:03.859Z,101446.13
2023-02-28T21:39:30.751Z,101440.72
2023-02-28T21:42:03.504Z,101459.44
2023-02-28T21:44:31.331Z,101451.44
2023-02-28T21:47:01.054Z,101455.84
2023-02-28T21:49:28.516Z,101462.94
2023-02-28T21:51:55.154Z,101459.38
2023-02-28T21:54:21.746Z,101452.47
2023-02-28T21:56:50.766Z,101455.13
2023-02-28T21:59:18.106Z,101452.63
2023-02-28T22:01:45.519Z,101454.41
2023-02-28T22:04:21.137Z,101444.69
2023-02-28T22:06:53.320Z,101447.34
2023-02-28T22:09:20.630Z,101451.81
2023-02-28T22:11:47.599Z,101452.69
2023-02-28T22:14:14.158Z,101457.84
2023-02-28T22:16:51.245Z,101455.28
2023-02-28T22:19:19.904Z,101452.47
2023-02-28T22:21:47.438Z,101457.72
2023-02-28T22:24:15.528Z,101456.78
2023-02-28T22:26:42.131Z,101453.28
2023-02-28T22:29:08.732Z,101456.84
2023-02-28T22:31:36.839Z,101460.63
2023-02-28T22:34:09.528Z,101458.16
2023-02-28T22:36:36.855Z,101456.34
2023-02-28T22:39:05.308Z,101451.91
2023-02-28T22:41:32.503Z,101466.00
2023-02-28T22:44:01.713Z,101457.06
2023-02-28T22:46:31.143Z,101461.47
2023-02-28T22:49:01.650Z,101459.63
2023-02-28T22:51:29.050Z,101458.59
2023-02-28T22:53:56.922Z,101460.41
2023-02-28T22:56:26.692Z,101451.53
2023-02-28T22:58:55.539Z,101451.53
2023-02-28T23:01:23.997Z,101461.34
2023-02-28T23:03:51.377Z,101463.00
2023-02-28T23:06:22.923Z,101457.00
2023-02-28T23:08:50.862Z,101449.13
2023-02-28T23:11:23.695Z,101445.75
2023-02-28T23:13:59.800Z,101450.38
2023-02-28T23:16:37.208Z,101445.81
2023-02-28T23:19:06.897Z,101443.97
2023-02-28T23:21:34.568Z,101442.97
2023-02-28T23:24:03.198Z,101450.97
2023-02-28T23:26:31.850Z,101451.75
2023-02-28T23:28:59.535Z,101445.47
2023-02-28T23:31:26.299Z,101439.19
2023-02-28T23:33:52.926Z,101436.69
2023-02-28T23:36:19.721Z,101433.13
2023-02-28T23:38:49.283Z,101435.03
2023-02-28T23:41:17.260Z,101439.41
2023-02-28T23:43:44.196Z,101441.22
2023-02-28T23:46:12.015Z,101437.63
2023-02-28T23:48:39.204Z,101430.47
2023-02-28T23:51:12.021Z,101434.03
2023-02-28T23:53:41.132Z,101442.97
2023-02-28T23:56:09.775Z,101445.47
2023-02-28T23:58:36.842Z,101440.22
